Etusivu
METAR-TAF:

METAR-TAF

Lentoasemat :

Odessa-Schlemeyer Field

Odessa, Texas, Yhdysvallat

Leveyspiiri: 31-55-17N, Pituuspiiri: 102-23-30W, korkeus merenpinnasta: 914 m

Tämänhetkinen sää

Tämä raportti tehtiin 1 tunti ja 11 minuuttia sitten, kello 20.53 UTC
Tuuli 8 kn etelästä puuskistuen 17 kn:hen
Lämpötila 33°C
Kosteus 32%
Ilmanpaine 1019 hPa
Näkyvyys: 16.1 km
selkeää

METAR: KODO 222053Z AUTO 19008G17KT 10SM CLR 33/14 A3008 RMK AO2 SLP134 T03330139 58016

Aika: 17:04 (22:04 UTC)


TAF: puuttuu

Säähavainnot ja -ennusteet yli 4000 lentoasemalta (METAR- ja TAF-raportit).

Käytössä olevat sääasemat on merkitty karttaan keltaisilla ja punaisilla pisteillä.

Aseta hiiri pisteen päälle nähdäksesi sääaseman nimen.

Klikkaa sitten nähdäksesi säähavainnot ja -ennusteet.

Kartan vaihtaminen: klikkaa mustalla rastilla varustettuja vihreitä pisteitä, niin voit zoomata sisään; viivalla varustettua vihreää pistettä, niin voit zoomata ulos tai vihreitä nuolia, niin pääset viereisille kartoille.


METAR-TAF: